createdAt,value
2022-10-05T00:01:27.341Z,11.24
2022-10-05T00:04:01.091Z,11.25
2022-10-05T00:06:31.174Z,11.29
2022-10-05T00:09:01.737Z,11.32
2022-10-05T00:11:30.199Z,11.36
2022-10-05T00:14:00.676Z,11.41
2022-10-05T00:16:30.457Z,11.44
2022-10-05T00:19:00.604Z,11.47
2022-10-05T00:21:30.291Z,11.50
2022-10-05T00:23:59.698Z,11.50
2022-10-05T00:26:33.159Z,11.51
2022-10-05T00:29:03.644Z,11.52
2022-10-05T00:31:36.407Z,11.51
2022-10-05T00:34:04.799Z,11.47
2022-10-05T00:36:33.532Z,11.46
2022-10-05T00:39:03.334Z,11.41
2022-10-05T00:41:40.696Z,11.38
2022-10-05T00:44:35.719Z,11.34
2022-10-05T00:47:14.527Z,11.30
2022-10-05T00:50:01.893Z,11.23
2022-10-05T00:52:40.179Z,11.22
2022-10-05T00:55:19.399Z,11.21
2022-10-05T00:57:57.732Z,11.20
2022-10-05T01:00:29.016Z,11.20
2022-10-05T01:03:02.760Z,11.21
2022-10-05T01:05:47.074Z,11.25
2022-10-05T01:08:26.457Z,11.27
2022-10-05T01:11:05.014Z,11.31
2022-10-05T01:13:48.394Z,11.33
2022-10-05T01:16:24.243Z,11.34
2022-10-05T01:19:00.190Z,11.37
2022-10-05T01:21:32.603Z,11.37
2022-10-05T01:24:31.847Z,11.39
2022-10-05T01:27:18.744Z,11.39
2022-10-05T01:29:55.687Z,11.38
2022-10-05T01:32:31.301Z,11.40
2022-10-05T01:35:09.322Z,11.42
2022-10-05T01:37:47.486Z,11.41
2022-10-05T01:40:25.774Z,11.40
2022-10-05T01:43:05.515Z,11.39
2022-10-05T01:45:46.261Z,11.40
2022-10-05T01:48:21.640Z,11.40
2022-10-05T01:51:02.013Z,11.38
2022-10-05T01:53:41.466Z,11.38
2022-10-05T01:56:20.361Z,11.41
2022-10-05T01:58:57.728Z,11.42
2022-10-05T02:01:33.339Z,11.43
2022-10-05T02:04:08.410Z,11.42
2022-10-05T02:06:40.320Z,11.41
2022-10-05T02:09:15.467Z,11.39
2022-10-05T02:11:49.304Z,11.36
2022-10-05T02:14:21.784Z,11.32
2022-10-05T02:16:54.136Z,11.28
2022-10-05T02:19:25.485Z,11.25
2022-10-05T02:22:00.398Z,11.19
2022-10-05T02:24:33.449Z,11.17
2022-10-05T02:27:05.032Z,11.17
2022-10-05T02:29:37.540Z,11.17
2022-10-05T02:32:16.301Z,11.15
2022-10-05T02:34:45.242Z,11.11
2022-10-05T02:37:25.423Z,11.13
2022-10-05T02:40:06.713Z,11.12
2022-10-05T02:42:47.357Z,11.12
2022-10-05T02:45:24.836Z,11.12
2022-10-05T02:48:05.139Z,11.12
2022-10-05T02:50:42.739Z,11.13
2022-10-05T02:53:23.263Z,11.15
2022-10-05T02:56:01.068Z,11.15
2022-10-05T02:58:35.125Z,11.17
2022-10-05T03:01:14.052Z,11.19
2022-10-05T03:03:48.692Z,11.20
2022-10-05T03:06:23.458Z,11.18
2022-10-05T03:09:02.508Z,11.19
2022-10-05T03:11:40.013Z,11.19
2022-10-05T03:14:15.390Z,11.19
2022-10-05T03:16:56.139Z,11.20
2022-10-05T03:19:39.557Z,11.19
2022-10-05T03:22:16.831Z,11.19
2022-10-05T03:25:15.864Z,11.20
2022-10-05T03:27:54.799Z,11.18
2022-10-05T03:30:26.606Z,11.17
2022-10-05T03:33:04.231Z,11.14
2022-10-05T03:35:46.472Z,11.13
2022-10-05T03:38:24.545Z,11.08
2022-10-05T03:40:58.360Z,11.07
2022-10-05T03:44:09.703Z,11.07
2022-10-05T03:46:54.712Z,11.06
2022-10-05T03:49:33.299Z,11.05
2022-10-05T03:52:10.188Z,10.99
2022-10-05T03:54:44.026Z,10.75
2022-10-05T03:57:15.921Z,10.31
2022-10-05T03:59:53.202Z,9.88
2022-10-05T04:02:26.223Z,9.71
2022-10-05T04:05:00.318Z,9.59
2022-10-05T04:07:42.678Z,9.57
2022-10-05T04:10:18.273Z,9.56
2022-10-05T04:12:52.072Z,9.53
2022-10-05T04:15:32.966Z,9.53
2022-10-05T04:18:06.394Z,9.63
2022-10-05T04:20:41.038Z,9.80
2022-10-05T04:23:19.749Z,9.98
2022-10-05T04:25:52.860Z,10.11
2022-10-05T04:28:31.799Z,10.24
2022-10-05T04:31:03.872Z,10.36
2022-10-05T04:33:33.215Z,10.42
2022-10-05T04:36:22.928Z,10.51
2022-10-05T04:39:03.659Z,10.54
2022-10-05T04:41:46.573Z,10.58
2022-10-05T04:44:28.844Z,10.61
2022-10-05T04:47:19.945Z,10.64
2022-10-05T04:50:08.716Z,10.68
2022-10-05T04:52:49.093Z,10.70
2022-10-05T04:55:29.378Z,10.70
2022-10-05T04:58:06.826Z,10.71
2022-10-05T05:00:45.482Z,10.72
2022-10-05T05:03:50.507Z,10.73
2022-10-05T05:06:30.766Z,10.73
2022-10-05T05:09:15.118Z,10.73
2022-10-05T05:11:56.075Z,10.73
2022-10-05T05:14:42.831Z,10.73
2022-10-05T05:17:24.736Z,10.72
2022-10-05T05:20:01.703Z,10.72
2022-10-05T05:22:36.753Z,10.74
2022-10-05T05:25:21.282Z,10.74
2022-10-05T05:27:54.924Z,10.75
2022-10-05T05:30:25.627Z,10.77
2022-10-05T05:33:15.427Z,10.81
2022-10-05T05:36:04.247Z,10.81
2022-10-05T05:38:36.373Z,10.83
2022-10-05T05:41:12.912Z,10.84
2022-10-05T05:43:54.227Z,10.88
2022-10-05T05:46:51.200Z,10.88
2022-10-05T05:49:22.690Z,10.91
2022-10-05T05:51:59.279Z,10.93
2022-10-05T05:54:38.250Z,10.96
2022-10-05T05:57:13.674Z,11.00
2022-10-05T05:59:55.659Z,11.04
2022-10-05T06:02:29.607Z,11.07
2022-10-05T06:05:04.001Z,11.10
2022-10-05T06:07:32.822Z,11.11
2022-10-05T06:10:07.356Z,11.12
2022-10-05T06:12:39.457Z,11.15
2022-10-05T06:15:29.295Z,11.19
2022-10-05T06:18:00.643Z,11.23
2022-10-05T06:20:34.126Z,11.26
2022-10-05T06:23:07.231Z,11.30
2022-10-05T06:25:45.814Z,11.34
2022-10-05T06:28:16.168Z,11.38
2022-10-05T06:31:02.641Z,11.42
2022-10-05T06:33:44.078Z,11.47
2022-10-05T06:36:38.976Z,11.52
2022-10-05T06:39:45.665Z,11.56
2022-10-05T06:42:31.432Z,11.61
2022-10-05T06:45:08.924Z,11.66
2022-10-05T06:47:50.819Z,11.69
2022-10-05T06:50:33.407Z,11.74
2022-10-05T06:53:17.162Z,11.77
2022-10-05T06:55:53.237Z,11.82
2022-10-05T06:58:36.392Z,11.88
2022-10-05T07:01:12.071Z,11.94
2022-10-05T07:04:00.392Z,12.00
2022-10-05T07:06:35.355Z,12.05
2022-10-05T07:09:25.362Z,12.14
2022-10-05T07:12:17.059Z,12.20
2022-10-05T07:15:07.700Z,12.27
2022-10-05T07:17:47.125Z,12.32
2022-10-05T07:20:25.311Z,12.38
2022-10-05T07:23:15.379Z,12.43
2022-10-05T07:25:51.180Z,12.49
2022-10-05T07:28:29.226Z,12.53
2022-10-05T07:31:06.667Z,12.58
2022-10-05T07:33:44.406Z,12.63
2022-10-05T07:36:38.686Z,12.66
2022-10-05T07:39:15.178Z,12.72
2022-10-05T07:41:47.761Z,12.79
2022-10-05T07:44:23.745Z,12.86
2022-10-05T07:47:02.235Z,12.95
2022-10-05T07:49:40.541Z,13.01
2022-10-05T07:52:16.413Z,13.07
2022-10-05T07:54:50.448Z,13.14
2022-10-05T07:57:27.315Z,13.20
2022-10-05T08:00:04.239Z,13.28
2022-10-05T08:02:39.016Z,13.35
2022-10-05T08:05:15.166Z,13.40
2022-10-05T08:07:55.542Z,13.45
2022-10-05T08:10:33.977Z,13.49
2022-10-05T08:13:11.426Z,13.57
2022-10-05T08:15:43.005Z,13.64
2022-10-05T08:18:18.921Z,13.70
2022-10-05T08:20:52.237Z,13.77
2022-10-05T08:23:31.756Z,13.80
2022-10-05T08:26:21.786Z,13.86
2022-10-05T08:28:59.635Z,13.96
2022-10-05T08:31:35.627Z,14.07
2022-10-05T08:34:22.173Z,14.13
2022-10-05T08:37:01.729Z,14.18
2022-10-05T08:39:37.569Z,14.27
2022-10-05T08:42:39.989Z,14.35
2022-10-05T08:45:48.164Z,14.41
2022-10-05T08:48:32.889Z,14.49
2022-10-05T08:51:23.301Z,14.57
2022-10-05T08:54:20.360Z,14.64
2022-10-05T08:57:06.847Z,14.68
2022-10-05T09:00:10.253Z,14.75
2022-10-05T09:02:58.899Z,14.83
2022-10-05T09:06:10.267Z,14.93
2022-10-05T09:09:14.195Z,15.08
2022-10-05T09:11:54.330Z,15.21
2022-10-05T09:14:34.553Z,15.33
2022-10-05T09:17:22.836Z,15.42
2022-10-05T09:20:10.179Z,15.53
2022-10-05T09:22:59.759Z,15.64
2022-10-05T09:25:44.846Z,15.69
2022-10-05T09:28:29.242Z,15.76
2022-10-05T09:31:15.421Z,15.82
2022-10-05T09:34:12.529Z,15.90
2022-10-05T09:37:20.142Z,15.97
2022-10-05T09:40:21.458Z,16.05
2022-10-05T09:43:34.211Z,16.16
2022-10-05T09:46:40.729Z,16.22
2022-10-05T09:49:34.574Z,16.28
2022-10-05T09:52:16.474Z,16.36
2022-10-05T09:55:22.310Z,16.43
2022-10-05T09:58:16.438Z,16.49
2022-10-05T10:01:09.248Z,16.53
2022-10-05T10:04:26.581Z,16.56
2022-10-05T10:07:35.433Z,16.61
2022-10-05T10:10:45.170Z,16.70
2022-10-05T10:14:00.336Z,16.79
2022-10-05T10:16:53.634Z,16.86
2022-10-05T10:20:04.625Z,16.91
2022-10-05T10:23:03.826Z,16.98
2022-10-05T10:25:53.298Z,17.07
2022-10-05T10:28:43.096Z,17.20
2022-10-05T10:31:43.448Z,17.29
2022-10-05T10:34:37.602Z,17.42
2022-10-05T10:37:31.802Z,17.55
2022-10-05T10:40:23.369Z,17.67
2022-10-05T10:43:13.961Z,17.81
2022-10-05T10:45:54.268Z,17.93
2022-10-05T10:48:55.135Z,18.03
2022-10-05T10:51:45.598Z,18.09
2022-10-05T10:55:00.011Z,18.19
2022-10-05T10:57:41.063Z,18.32
2022-10-05T11:00:29.163Z,18.44
2022-10-05T11:03:34.303Z,18.55
2022-10-05T11:06:19.061Z,18.65
2022-10-05T11:09:22.670Z,18.74
2022-10-05T11:12:25.878Z,18.84
2022-10-05T11:15:39.333Z,18.96
2022-10-05T11:18:16.673Z,19.15
2022-10-05T11:21:13.004Z,19.27
2022-10-05T11:24:08.789Z,19.34
2022-10-05T11:26:53.613Z,19.41
2022-10-05T11:29:47.335Z,19.47
2022-10-05T11:32:35.039Z,19.58
2022-10-05T11:35:20.545Z,19.68
2022-10-05T11:38:16.315Z,19.79
2022-10-05T11:41:18.689Z,19.92
2022-10-05T11:44:09.900Z,20.02
2022-10-05T11:46:47.056Z,20.13
2022-10-05T11:49:27.090Z,20.16
2022-10-05T11:52:09.901Z,20.24
2022-10-05T11:55:11.362Z,20.28
2022-10-05T11:57:49.656Z,20.33
2022-10-05T12:00:20.862Z,20.40
2022-10-05T12:03:03.137Z,20.48
2022-10-05T12:05:39.612Z,20.59
2022-10-05T12:08:21.416Z,20.68
2022-10-05T12:10:59.723Z,20.74
2022-10-05T12:13:38.828Z,20.78
2022-10-05T12:16:13.133Z,20.81
2022-10-05T12:18:57.532Z,20.84
2022-10-05T12:21:34.329Z,20.90
2022-10-05T12:24:14.601Z,21.00
2022-10-05T12:26:48.508Z,21.07
2022-10-05T12:29:24.648Z,21.16
2022-10-05T12:31:59.969Z,21.25
2022-10-05T12:34:44.846Z,21.36
2022-10-05T12:37:34.886Z,21.47
2022-10-05T12:40:07.987Z,21.58
2022-10-05T12:42:42.074Z,21.65
2022-10-05T12:45:21.679Z,21.75
2022-10-05T12:48:08.723Z,21.85
2022-10-05T12:50:43.288Z,21.91
2022-10-05T12:53:29.827Z,21.95
2022-10-05T12:56:05.475Z,21.98
2022-10-05T12:58:42.843Z,22.02
2022-10-05T13:01:27.215Z,22.06
2022-10-05T13:04:11.463Z,22.09
2022-10-05T13:06:50.093Z,22.11
2022-10-05T13:09:25.211Z,22.10
2022-10-05T13:11:58.712Z,22.12
2022-10-05T13:14:47.376Z,22.13
2022-10-05T13:17:24.958Z,22.19
2022-10-05T13:20:05.123Z,22.20
2022-10-05T13:22:37.690Z,22.22
2022-10-05T13:25:21.734Z,22.26
2022-10-05T13:28:14.802Z,22.31
2022-10-05T13:30:52.638Z,22.40
2022-10-05T13:33:27.804Z,22.46
2022-10-05T13:36:07.882Z,22.48
2022-10-05T13:38:51.973Z,22.52
2022-10-05T13:41:32.254Z,22.55
2022-10-05T13:44:17.656Z,22.58
2022-10-05T13:46:50.373Z,22.62
2022-10-05T13:49:26.549Z,22.64
2022-10-05T13:52:01.662Z,22.66
2022-10-05T13:54:41.755Z,22.64
2022-10-05T13:57:22.217Z,22.57
2022-10-05T13:59:54.994Z,22.51
2022-10-05T14:02:29.933Z,22.48
2022-10-05T14:05:04.597Z,22.43
2022-10-05T14:07:35.117Z,22.37
2022-10-05T14:10:11.283Z,22.34
2022-10-05T14:12:45.728Z,22.32
2022-10-05T14:15:22.195Z,22.27
2022-10-05T14:17:52.770Z,22.22
2022-10-05T14:20:25.017Z,22.19
2022-10-05T14:23:00.694Z,22.16
2022-10-05T14:25:31.619Z,22.14
2022-10-05T14:28:04.076Z,22.14
2022-10-05T14:30:33.681Z,22.15
2022-10-05T14:33:16.263Z,22.14
2022-10-05T14:35:49.205Z,22.13
2022-10-05T14:38:21.295Z,22.12
2022-10-05T14:41:17.323Z,22.06
2022-10-05T14:43:55.857Z,21.98
2022-10-05T14:46:29.045Z,21.97
2022-10-05T14:49:24.208Z,21.93
2022-10-05T14:51:54.388Z,21.92
2022-10-05T14:54:36.788Z,21.91
2022-10-05T14:57:15.572Z,21.88
2022-10-05T15:00:05.439Z,21.86
2022-10-05T15:02:58.147Z,21.83
2022-10-05T15:05:32.500Z,21.80
2022-10-05T15:08:15.816Z,21.77
2022-10-05T15:10:50.886Z,21.74
2022-10-05T15:13:23.328Z,21.70
2022-10-05T15:15:55.213Z,21.66
2022-10-05T15:18:32.354Z,21.62
2022-10-05T15:21:16.706Z,21.60
2022-10-05T15:23:52.897Z,21.61
2022-10-05T15:26:36.475Z,21.63
2022-10-05T15:29:19.619Z,21.63
2022-10-05T15:31:58.077Z,21.63
2022-10-05T15:34:36.566Z,21.63
2022-10-05T15:37:15.082Z,21.65
2022-10-05T15:39:50.439Z,21.63
2022-10-05T15:42:23.775Z,21.61
2022-10-05T15:45:05.494Z,21.60
2022-10-05T15:47:47.091Z,21.54
2022-10-05T15:50:23.899Z,21.51
2022-10-05T15:52:57.201Z,21.45
2022-10-05T15:55:38.210Z,21.37
2022-10-05T15:58:39.117Z,21.28
2022-10-05T16:01:14.158Z,21.17
2022-10-05T16:03:50.171Z,21.08
2022-10-05T16:06:47.173Z,21.01
2022-10-05T16:09:29.679Z,20.92
2022-10-05T16:12:06.167Z,20.81
2022-10-05T16:14:48.779Z,20.71
2022-10-05T16:17:29.817Z,20.57
2022-10-05T16:20:14.621Z,20.44
2022-10-05T16:22:51.015Z,20.31
2022-10-05T16:25:23.523Z,20.19
2022-10-05T16:28:07.205Z,20.08
2022-10-05T16:30:47.613Z,19.98
2022-10-05T16:33:26.952Z,19.89
2022-10-05T16:36:04.920Z,19.78
2022-10-05T16:38:44.314Z,19.69
2022-10-05T16:41:28.354Z,19.60
2022-10-05T16:44:05.127Z,19.50
2022-10-05T16:46:40.932Z,19.40
2022-10-05T16:49:23.969Z,19.31
2022-10-05T16:51:59.123Z,19.23
2022-10-05T16:54:32.732Z,19.13
2022-10-05T16:57:06.557Z,19.03
2022-10-05T17:00:18.568Z,18.90
2022-10-05T17:03:04.163Z,18.76
2022-10-05T17:05:55.813Z,18.64
2022-10-05T17:09:11.184Z,18.55
2022-10-05T17:11:56.175Z,18.43
2022-10-05T17:14:38.996Z,18.37
2022-10-05T17:17:30.707Z,18.33
2022-10-05T17:20:17.425Z,18.25
2022-10-05T17:22:52.959Z,18.19
2022-10-05T17:25:29.728Z,18.15
2022-10-05T17:28:17.860Z,18.10
2022-10-05T17:30:58.927Z,18.07
2022-10-05T17:33:29.100Z,18.04
2022-10-05T17:36:17.224Z,18.02
2022-10-05T17:39:13.074Z,17.96
2022-10-05T17:41:44.985Z,17.91
2022-10-05T17:44:34.149Z,17.87
2022-10-05T17:47:04.108Z,17.82
2022-10-05T17:50:11.310Z,17.78
2022-10-05T17:53:01.854Z,17.69
2022-10-05T17:56:02.429Z,17.62
2022-10-05T17:59:07.899Z,17.55
2022-10-05T18:01:38.117Z,17.47
2022-10-05T18:04:41.018Z,17.43
2022-10-05T18:07:24.294Z,17.38
2022-10-05T18:10:02.181Z,17.33
2022-10-05T18:13:10.855Z,17.29
2022-10-05T18:15:50.327Z,17.26
2022-10-05T18:18:57.401Z,17.24
2022-10-05T18:21:59.908Z,17.22
2022-10-05T18:24:41.955Z,17.22
2022-10-05T18:27:46.881Z,17.22
2022-10-05T18:30:21.555Z,17.20
2022-10-05T18:33:11.728Z,17.19
2022-10-05T18:35:51.859Z,17.17
2022-10-05T18:38:39.414Z,17.18
2022-10-05T18:41:17.316Z,17.19
2022-10-05T18:43:53.857Z,17.18
2022-10-05T18:46:38.019Z,17.18
2022-10-05T18:49:22.006Z,17.15
2022-10-05T18:51:56.483Z,17.15
2022-10-05T18:54:43.127Z,17.11
2022-10-05T18:57:34.316Z,17.10
2022-10-05T19:00:07.978Z,17.08
2022-10-05T19:02:43.014Z,17.07
2022-10-05T19:05:46.822Z,17.06
2022-10-05T19:08:21.754Z,17.04
2022-10-05T19:10:55.637Z,17.03
2022-10-05T19:13:39.757Z,17.01
2022-10-05T19:16:22.462Z,16.99
2022-10-05T19:19:12.326Z,16.98
2022-10-05T19:21:47.904Z,16.95
2022-10-05T19:24:29.714Z,16.92
2022-10-05T19:27:07.768Z,16.87
2022-10-05T19:29:52.780Z,16.84
2022-10-05T19:32:31.083Z,16.86
2022-10-05T19:35:18.999Z,16.87
2022-10-05T19:37:56.615Z,16.89
2022-10-05T19:40:31.605Z,16.90
2022-10-05T19:43:14.285Z,16.90
2022-10-05T19:45:48.538Z,16.91
2022-10-05T19:48:29.328Z,16.90
2022-10-05T19:51:04.094Z,16.88
2022-10-05T19:53:38.226Z,16.86
2022-10-05T19:56:20.406Z,16.84
2022-10-05T19:58:52.093Z,16.81
2022-10-05T20:01:25.575Z,16.78
2022-10-05T20:03:55.455Z,16.75
2022-10-05T20:06:26.929Z,16.73
2022-10-05T20:08:59.874Z,16.71
2022-10-05T20:11:29.395Z,16.68
2022-10-05T20:14:19.968Z,16.65
2022-10-05T20:17:05.955Z,16.65
2022-10-05T20:19:56.908Z,16.63
2022-10-05T20:22:35.240Z,16.60
2022-10-05T20:25:06.785Z,16.59
2022-10-05T20:27:46.619Z,16.55
2022-10-05T20:30:16.963Z,16.52
2022-10-05T20:32:49.153Z,16.48
2022-10-05T20:35:18.603Z,16.41
2022-10-05T20:37:49.955Z,16.31
2022-10-05T20:40:19.715Z,16.25
2022-10-05T20:42:48.359Z,16.22
2022-10-05T20:45:17.304Z,16.19
2022-10-05T20:47:46.626Z,16.12
2022-10-05T20:50:15.862Z,16.01
2022-10-05T20:52:44.868Z,15.93
2022-10-05T20:55:14.645Z,15.92
2022-10-05T20:57:43.189Z,15.95
2022-10-05T21:00:13.212Z,16.00
2022-10-05T21:02:41.833Z,16.06
2022-10-05T21:05:10.845Z,16.07
2022-10-05T21:07:39.598Z,16.06
2022-10-05T21:10:08.643Z,16.04
2022-10-05T21:12:38.736Z,16.00
2022-10-05T21:15:07.952Z,15.91
2022-10-05T21:17:39.223Z,15.87
2022-10-05T21:20:11.165Z,15.78
2022-10-05T21:22:39.556Z,15.77
2022-10-05T21:25:08.985Z,15.79
2022-10-05T21:27:39.136Z,15.80
2022-10-05T21:30:09.137Z,15.79
2022-10-05T21:32:41.804Z,15.79
2022-10-05T21:35:12.611Z,15.80
2022-10-05T21:37:41.004Z,15.82
2022-10-05T21:40:10.426Z,15.82
2022-10-05T21:42:40.151Z,15.83
2022-10-05T21:45:09.707Z,15.86
2022-10-05T21:47:38.496Z,15.88
2022-10-05T21:50:08.653Z,15.90
2022-10-05T21:52:37.215Z,15.90
2022-10-05T21:55:06.919Z,15.88
2022-10-05T21:57:36.553Z,15.89
2022-10-05T22:00:09.452Z,15.90
2022-10-05T22:02:38.314Z,15.88
2022-10-05T22:05:06.916Z,15.89
2022-10-05T22:07:35.466Z,15.89
2022-10-05T22:10:05.843Z,15.88
2022-10-05T22:12:34.690Z,15.87
2022-10-05T22:15:04.837Z,15.85
2022-10-05T22:17:37.952Z,15.83
2022-10-05T22:20:07.210Z,15.83
2022-10-05T22:22:35.543Z,15.81
2022-10-05T22:25:04.429Z,15.77
2022-10-05T22:27:35.297Z,15.74
2022-10-05T22:30:05.699Z,15.70
2022-10-05T22:32:35.836Z,15.67
2022-10-05T22:35:09.123Z,15.63
2022-10-05T22:37:39.706Z,15.61
2022-10-05T22:40:11.182Z,15.60
2022-10-05T22:42:40.584Z,15.58
2022-10-05T22:45:10.074Z,15.56
2022-10-05T22:47:42.633Z,15.54
2022-10-05T22:50:11.187Z,15.52
2022-10-05T22:52:39.541Z,15.50
2022-10-05T22:55:08.706Z,15.50
2022-10-05T22:57:39.901Z,15.48
2022-10-05T23:00:11.477Z,15.46
2022-10-05T23:02:42.833Z,15.45
2022-10-05T23:05:13.265Z,15.43
2022-10-05T23:07:44.129Z,15.42
2022-10-05T23:10:15.724Z,15.39
2022-10-05T23:12:44.783Z,15.37
2022-10-05T23:15:13.328Z,15.34
2022-10-05T23:17:43.074Z,15.32
2022-10-05T23:20:11.376Z,15.32
2022-10-05T23:22:40.406Z,15.32
2022-10-05T23:25:09.527Z,15.32
2022-10-05T23:27:39.155Z,15.33
2022-10-05T23:30:09.941Z,15.32
2022-10-05T23:32:39.831Z,15.32
2022-10-05T23:35:12.330Z,15.31
2022-10-05T23:37:41.674Z,15.29
2022-10-05T23:40:13.312Z,15.28
2022-10-05T23:42:42.447Z,15.27
2022-10-05T23:45:12.662Z,15.25
2022-10-05T23:47:41.823Z,15.24
2022-10-05T23:50:11.605Z,15.21
2022-10-05T23:52:44.404Z,15.19
2022-10-05T23:55:12.694Z,15.16
2022-10-05T23:57:41.064Z,15.13
